Time,TemperatureF,DewpointF,PressureIn,WindDirection,WindDirectionDegrees,WindSpeedMPH,WindSpeedGustMPH,Humidity,HourlyPrecipIn,Conditions,Clouds,dailyrainin,SolarRadiationWatts/m^2,SoftwareType,DateUTC
2013-04-21 00:03:00,42.0,21.0,-100.00,NNW,330,6.0,15.0,43,0.00,,,0.15,0.000000,,2013-04-21 04:03:00,
2013-04-21 00:10:00,39.0,17.0,-100.00,NW,323,8.0,22.0,40,0.00,,,0.12,0.000000,,2013-04-21 04:10:00,
2013-04-21 00:43:00,39.0,17.0,-100.00,NW,323,8.0,22.0,40,0.00,,,0.12,0.000000,,2013-04-21 04:43:00,
2013-04-21 00:53:00,39.0,17.0,-100.00,NW,323,8.0,22.0,40,0.00,,,0.12,0.000000,,2013-04-21 04:53:00,
2013-04-21 01:02:00,39.0,17.0,-100.00,NW,323,8.0,22.0,40,0.00,,,0.12,0.000000,,2013-04-21 05:02:00,
2013-04-21 01:10:00,37.0,17.0,-100.00,NNW,330,9.0,20.0,44,0.00,,,0.08,0.000000,,2013-04-21 05:10:00,
2013-04-21 01:32:00,37.0,17.0,-100.00,NNW,330,9.0,20.0,44,0.00,,,0.08,0.000000,,2013-04-21 05:32:00,
2013-04-21 01:43:00,37.0,17.0,-100.00,NNW,330,9.0,20.0,44,0.00,,,0.08,0.000000,,2013-04-21 05:43:00,
2013-04-21 01:52:00,37.0,17.0,-100.00,NNW,330,9.0,20.0,44,0.00,,,0.08,0.000000,,2013-04-21 05:52:00,
2013-04-21 02:01:00,37.0,17.0,-100.00,NNW,330,9.0,20.0,44,0.00,,,0.08,0.000000,,2013-04-21 06:01:00,
2013-04-21 02:10:00,35.0,16.0,-100.00,NNW,331,10.0,23.0,45,0.00,,,0.03,0.000000,,2013-04-21 06:10:00,
2013-04-21 02:42:00,35.0,16.0,-100.00,NNW,331,10.0,23.0,45,0.00,,,0.03,0.000000,,2013-04-21 06:42:00,
2013-04-21 02:52:00,35.0,16.0,-100.00,NNW,331,10.0,23.0,45,0.00,,,0.03,0.000000,,2013-04-21 06:52:00,
2013-04-21 03:02:00,35.0,16.0,-100.00,NNW,331,10.0,23.0,45,0.00,,,0.03,0.000000,,2013-04-21 07:02:00,
2013-04-21 03:10:00,33.0,14.0,-100.00,NNW,327,6.0,17.0,45,0.00,,,0.01,0.000000,,2013-04-21 07:10:00,
2013-04-21 03:32:00,33.0,14.0,-100.00,NNW,327,6.0,17.0,45,0.00,,,0.01,0.000000,,2013-04-21 07:32:00,
2013-04-21 03:42:00,33.0,14.0,-100.00,NNW,327,6.0,17.0,45,0.00,,,0.01,0.000000,,2013-04-21 07:42:00,
2013-04-21 03:52:00,33.0,14.0,-100.00,NNW,327,6.0,17.0,45,0.00,,,0.01,0.000000,,2013-04-21 07:52:00,
2013-04-21 04:02:00,33.0,14.0,-100.00,NNW,327,6.0,17.0,45,0.00,,,0.01,0.000000,,2013-04-21 08:02:00,
2013-04-21 04:10:00,33.0,16.0,-100.00,NNW,329,7.0,16.0,49,0.00,,,0.01,0.000000,,2013-04-21 08:10:00,
2013-04-21 04:42:00,33.0,16.0,-100.00,NNW,329,7.0,16.0,49,0.00,,,0.01,0.000000,,2013-04-21 08:42:00,
2013-04-21 04:52:00,33.0,16.0,-100.00,NNW,329,7.0,16.0,49,0.00,,,0.01,0.000000,,2013-04-21 08:52:00,
2013-04-21 05:02:00,33.0,16.0,-100.00,NNW,329,7.0,16.0,49,0.00,,,0.01,0.000000,,2013-04-21 09:02:00,
2013-04-21 05:10:00,32.0,16.0,-100.00,NW,321,7.0,15.0,52,0.00,,,0.00,0.000000,,2013-04-21 09:10:00,
2013-04-21 05:33:00,32.0,16.0,-100.00,NW,321,7.0,15.0,52,0.00,,,0.00,0.000000,,2013-04-21 09:33:00,
2013-04-21 05:43:00,32.0,16.0,-100.00,NW,321,7.0,15.0,52,0.00,,,0.00,0.000000,,2013-04-21 09:43:00,
2013-04-21 05:53:00,32.0,16.0,-100.00,NW,321,7.0,15.0,52,0.00,,,0.00,0.000000,,2013-04-21 09:53:00,
2013-04-21 06:03:00,32.0,16.0,-100.00,NW,321,7.0,15.0,52,0.00,,,0.00,0.000000,,2013-04-21 10:03:00,
2013-04-21 06:10:00,31.0,17.0,-100.00,NNW,336,8.0,19.0,56,0.00,,,0.00,1.000000,,2013-04-21 10:10:00,
2013-04-21 06:33:00,31.0,17.0,-100.00,NNW,336,8.0,19.0,56,0.00,,,0.00,1.000000,,2013-04-21 10:33:00,
2013-04-21 06:42:00,31.0,17.0,-100.00,NNW,336,8.0,19.0,56,0.00,,,0.00,1.000000,,2013-04-21 10:42:00,
2013-04-21 06:52:00,31.0,17.0,-100.00,NNW,336,8.0,19.0,56,0.00,,,0.00,1.000000,,2013-04-21 10:52:00,
2013-04-21 07:03:00,31.0,17.0,-100.00,NNW,336,8.0,19.0,56,0.00,,,0.00,1.000000,,2013-04-21 11:03:00,
2013-04-21 07:10:00,33.0,19.0,-100.00,NNW,338,8.0,14.0,56,0.00,,,0.00,44.000000,,2013-04-21 11:10:00,
2013-04-21 07:42:00,33.0,19.0,-100.00,NNW,338,8.0,14.0,56,0.00,,,0.00,44.000000,,2013-04-21 11:42:00,
2013-04-21 07:52:00,33.0,19.0,-100.00,NNW,338,8.0,14.0,56,0.00,,,0.00,44.000000,,2013-04-21 11:52:00,
2013-04-21 08:03:00,33.0,19.0,-100.00,NNW,338,8.0,14.0,56,0.00,,,0.00,44.000000,,2013-04-21 12:03:00,
2013-04-21 08:10:00,35.0,20.0,-100.00,NNW,337,10.0,16.0,54,0.00,,,0.00,219.000000,,2013-04-21 12:10:00,
2013-04-21 08:32:00,35.0,20.0,-100.00,NNW,337,10.0,16.0,54,0.00,,,0.00,219.000000,,2013-04-21 12:32:00,
2013-04-21 08:42:00,35.0,20.0,-100.00,NNW,337,10.0,16.0,54,0.00,,,0.00,219.000000,,2013-04-21 12:42:00,
2013-04-21 08:52:00,35.0,20.0,-100.00,NNW,337,10.0,16.0,54,0.00,,,0.00,219.000000,,2013-04-21 12:52:00,
2013-04-21 09:01:00,35.0,20.0,-100.00,NNW,337,10.0,16.0,54,0.00,,,0.00,219.000000,,2013-04-21 13:01:00,
2013-04-21 09:10:00,37.0,20.0,-100.00,North,3,11.0,19.0,50,0.00,,,0.00,458.000000,,2013-04-21 13:10:00,
2013-04-21 09:32:00,37.0,20.0,-100.00,North,3,11.0,19.0,50,0.00,,,0.00,458.000000,,2013-04-21 13:32:00,
2013-04-21 09:42:00,37.0,20.0,-100.00,North,3,11.0,19.0,50,0.00,,,0.00,458.000000,,2013-04-21 13:42:00,
2013-04-21 09:52:00,37.0,20.0,-100.00,North,3,11.0,19.0,50,0.00,,,0.00,458.000000,,2013-04-21 13:52:00,
2013-04-21 10:02:00,37.0,20.0,-100.00,North,3,11.0,19.0,50,0.00,,,0.00,458.000000,,2013-04-21 14:02:00,
2013-04-21 10:10:00,39.0,21.0,-100.00,NNW,344,8.0,17.0,49,0.00,,,0.00,700.000000,,2013-04-21 14:10:00,
2013-04-21 10:32:00,39.0,21.0,-100.00,NNW,344,8.0,17.0,49,0.00,,,0.00,700.000000,,2013-04-21 14:32:00,
2013-04-21 10:42:00,39.0,21.0,-100.00,NNW,344,8.0,17.0,49,0.00,,,0.00,700.000000,,2013-04-21 14:42:00,
2013-04-21 10:52:00,39.0,21.0,-100.00,NNW,344,8.0,17.0,49,0.00,,,0.00,700.000000,,2013-04-21 14:52:00,
2013-04-21 11:02:00,39.0,21.0,-100.00,NNW,344,8.0,17.0,49,0.00,,,0.00,700.000000,,2013-04-21 15:02:00,
2013-04-21 11:10:00,42.0,23.0,-100.00,NNE,14,7.0,17.0,46,0.00,,,0.00,875.000000,,2013-04-21 15:10:00,
2013-04-21 11:33:00,42.0,23.0,-100.00,NNE,14,7.0,17.0,46,0.00,,,0.00,875.000000,,2013-04-21 15:33:00,
2013-04-21 11:43:00,42.0,23.0,-100.00,NNE,14,7.0,17.0,46,0.00,,,0.00,875.000000,,2013-04-21 15:43:00,
2013-04-21 11:53:00,42.0,23.0,-100.00,NNE,14,7.0,17.0,46,0.00,,,0.00,875.000000,,2013-04-21 15:53:00,
2013-04-21 12:03:00,42.0,23.0,-100.00,NNE,14,7.0,17.0,46,0.00,,,0.00,875.000000,,2013-04-21 16:03:00,
2013-04-21 12:10:00,44.0,22.0,-100.00,NNE,18,7.0,20.0,41,0.00,,,0.00,946.000000,,2013-04-21 16:10:00,
2013-04-21 12:42:00,44.0,22.0,-100.00,NNE,18,7.0,20.0,41,0.00,,,0.00,946.000000,,2013-04-21 16:42:00,
2013-04-21 12:53:00,44.0,22.0,-100.00,NNE,18,7.0,20.0,41,0.00,,,0.00,946.000000,,2013-04-21 16:53:00,
2013-04-21 13:02:00,44.0,22.0,-100.00,NNE,18,7.0,20.0,41,0.00,,,0.00,946.000000,,2013-04-21 17:02:00,
2013-04-21 13:10:00,47.0,21.0,-100.00,North,10,7.0,15.0,36,0.00,,,0.00,976.000000,,2013-04-21 17:10:00,
2013-04-21 13:32:00,47.0,21.0,-100.00,North,10,7.0,15.0,36,0.00,,,0.00,976.000000,,2013-04-21 17:32:00,
2013-04-21 13:42:00,47.0,21.0,-100.00,North,10,7.0,15.0,36,0.00,,,0.00,976.000000,,2013-04-21 17:42:00,
2013-04-21 13:52:00,47.0,21.0,-100.00,North,10,7.0,15.0,36,0.00,,,0.00,976.000000,,2013-04-21 17:52:00,
2013-04-21 14:02:00,47.0,21.0,-100.00,North,10,7.0,15.0,36,0.00,,,0.00,976.000000,,2013-04-21 18:02:00,
2013-04-21 14:10:00,48.0,20.0,-100.00,North,353,10.0,15.0,33,0.00,,,0.00,1101.000000,,2013-04-21 18:10:00,
2013-04-21 14:33:00,48.0,20.0,-100.00,North,353,10.0,15.0,33,0.00,,,0.00,1101.000000,,2013-04-21 18:33:00,
2013-04-21 14:42:00,48.0,20.0,-100.00,North,353,10.0,15.0,33,0.00,,,0.00,1101.000000,,2013-04-21 18:42:00,
2013-04-21 14:52:00,48.0,20.0,-100.00,North,353,10.0,15.0,33,0.00,,,0.00,1101.000000,,2013-04-21 18:52:00,
2013-04-21 15:02:00,48.0,20.0,-100.00,North,353,10.0,15.0,33,0.00,,,0.00,1101.000000,,2013-04-21 19:02:00,
2013-04-21 15:10:00,49.0,20.0,-100.00,North,350,8.0,16.0,31,0.00,,,0.00,978.000000,,2013-04-21 19:10:00,
2013-04-21 15:32:00,49.0,20.0,-100.00,North,350,8.0,16.0,31,0.00,,,0.00,978.000000,,2013-04-21 19:32:00,
2013-04-21 15:43:00,49.0,20.0,-100.00,North,350,8.0,16.0,31,0.00,,,0.00,978.000000,,2013-04-21 19:43:00,
2013-04-21 15:52:00,49.0,20.0,-100.00,North,350,8.0,16.0,31,0.00,,,0.00,978.000000,,2013-04-21 19:52:00,
2013-04-21 16:02:00,49.0,20.0,-100.00,North,350,8.0,16.0,31,0.00,,,0.00,978.000000,,2013-04-21 20:02:00,
2013-04-21 16:10:00,51.0,21.0,-100.00,North,354,6.0,16.0,31,0.00,,,0.00,881.000000,,2013-04-21 20:10:00,
2013-04-21 16:42:00,51.0,21.0,-100.00,North,354,6.0,16.0,31,0.00,,,0.00,881.000000,,2013-04-21 20:42:00,
2013-04-21 16:52:00,51.0,21.0,-100.00,North,354,6.0,16.0,31,0.00,,,0.00,881.000000,,2013-04-21 20:52:00,
2013-04-21 17:02:00,51.0,21.0,-100.00,North,354,6.0,16.0,31,0.00,,,0.00,881.000000,,2013-04-21 21:02:00,
2013-04-21 17:10:00,51.0,19.0,-100.00,East,99,6.0,18.0,28,0.00,,,0.00,681.000000,,2013-04-21 21:10:00,
2013-04-21 17:43:00,51.0,19.0,-100.00,East,99,6.0,18.0,28,0.00,,,0.00,681.000000,,2013-04-21 21:43:00,
2013-04-21 17:53:00,51.0,19.0,-100.00,East,99,6.0,18.0,28,0.00,,,0.00,681.000000,,2013-04-21 21:53:00,
2013-04-21 18:03:00,51.0,19.0,-100.00,East,99,6.0,18.0,28,0.00,,,0.00,681.000000,,2013-04-21 22:03:00,
2013-04-21 18:10:00,51.0,18.0,-100.00,NE,51,4.0,10.0,27,0.00,,,0.00,434.000000,,2013-04-21 22:10:00,
2013-04-21 18:33:00,51.0,18.0,-100.00,NE,51,4.0,10.0,27,0.00,,,0.00,434.000000,,2013-04-21 22:33:00,
2013-04-21 18:43:00,51.0,18.0,-100.00,NE,51,4.0,10.0,27,0.00,,,0.00,434.000000,,2013-04-21 22:43:00,
2013-04-21 18:53:00,51.0,18.0,-100.00,NE,51,4.0,10.0,27,0.00,,,0.00,434.000000,,2013-04-21 22:53:00,
2013-04-21 19:02:00,51.0,18.0,-100.00,NE,51,4.0,10.0,27,0.00,,,0.00,434.000000,,2013-04-21 23:02:00,
2013-04-21 19:10:00,48.0,17.0,-100.00,ESE,107,4.0,8.0,29,0.00,,,0.00,147.000000,,2013-04-21 23:10:00,
2013-04-21 19:32:00,48.0,17.0,-100.00,ESE,107,4.0,8.0,29,0.00,,,0.00,147.000000,,2013-04-21 23:32:00,
2013-04-21 19:43:00,48.0,17.0,-100.00,ESE,107,4.0,8.0,29,0.00,,,0.00,147.000000,,2013-04-21 23:43:00,
2013-04-21 19:52:00,48.0,17.0,-100.00,ESE,107,4.0,8.0,29,0.00,,,0.00,147.000000,,2013-04-21 23:52:00,
2013-04-21 20:01:00,48.0,17.0,-100.00,ESE,107,4.0,8.0,29,0.00,,,0.00,147.000000,,2013-04-22 00:01:00,
2013-04-21 21:10:00,44.0,18.0,-100.00,ESE,114,4.0,7.0,35,-99.99,,,0.00,0.000000,,2013-04-22 01:10:00,
2013-04-21 21:42:00,44.0,18.0,-100.00,ESE,114,4.0,7.0,35,-99.99,,,0.00,0.000000,,2013-04-22 01:42:00,
2013-04-21 21:52:00,44.0,18.0,-100.00,ESE,114,4.0,7.0,35,-99.99,,,0.00,0.000000,,2013-04-22 01:52:00,
2013-04-21 22:02:00,44.0,18.0,-100.00,ESE,114,4.0,7.0,35,-99.99,,,0.00,0.000000,,2013-04-22 02:02:00,
2013-04-21 22:10:00,42.0,20.0,-100.00,ESE,120,4.0,9.0,41,0.00,,,0.00,0.000000,,2013-04-22 02:10:00,
2013-04-21 22:32:00,42.0,20.0,-100.00,ESE,120,4.0,9.0,41,0.00,,,0.00,0.000000,,2013-04-22 02:32:00,
2013-04-21 22:42:00,42.0,20.0,-100.00,ESE,120,4.0,9.0,41,0.00,,,0.00,0.000000,,2013-04-22 02:42:00,
2013-04-21 22:52:00,42.0,20.0,-100.00,ESE,120,4.0,9.0,41,0.00,,,0.00,0.000000,,2013-04-22 02:52:00,
2013-04-21 23:02:00,42.0,20.0,-100.00,ESE,120,4.0,9.0,41,0.00,,,0.00,0.000000,,2013-04-22 03:02:00,
2013-04-21 23:10:00,41.0,22.0,-100.00,ESE,122,4.0,7.0,46,0.00,,,0.00,0.000000,,2013-04-22 03:10:00,
2013-04-21 23:33:00,41.0,22.0,-100.00,ESE,122,4.0,7.0,46,0.00,,,0.00,0.000000,,2013-04-22 03:33:00,
2013-04-21 23:43:00,41.0,22.0,-100.00,ESE,122,4.0,7.0,46,0.00,,,0.00,0.000000,,2013-04-22 03:43:00,
2013-04-21 23:53:00,41.0,22.0,-100.00,ESE,122,4.0,7.0,46,0.00,,,0.00,0.000000,,2013-04-22 03:53:00,